Time;durP1;ratioP1;P1;durP2;ratioP2;P2;SDS_P1;SDS_P2;PMS_P1;PMS_P2;Temp;Humidity;BMP_temperature;BMP_pressure;BME280_temperature;BME280_humidity;BME280_pressure;Samples;Min_cycle;Max_cycle;Signal;HPM_P1;HPM_P2
2022/06/10 00:01:40;;;;;;;4.97;3.43;;;16.90;99.90;;;;;;5001517;28;20224;-68
2022/06/10 00:04:06;;;;;;;4.00;3.27;;;16.80;99.90;;;;;;4999405;28;20228;-68
2022/06/10 00:06:31;;;;;;;9.67;3.70;;;16.90;99.90;;;;;;5001678;28;20181;-68
2022/06/10 00:08:57;;;;;;;6.13;4.07;;;16.90;99.90;;;;;;5000197;28;20196;-69
2022/06/10 00:11:23;;;;;;;6.73;3.33;;;16.60;99.90;;;;;;5002235;28;20197;-69
2022/06/10 00:13:49;;;;;;;8.20;3.37;;;16.70;99.90;;;;;;5003216;28;20196;-69
2022/06/10 00:16:17;;;;;;;4.53;3.30;;;16.70;99.90;;;;;;4999959;28;20223;-69
2022/06/10 00:18:43;;;;;;;10.40;2.97;;;16.60;99.90;;;;;;4997332;28;20437;-69
2022/06/10 00:21:11;;;;;;;6.70;3.20;;;16.50;99.90;;;;;;4984020;28;20435;-69
2022/06/10 00:23:37;;;;;;;7.77;3.10;;;16.50;99.90;;;;;;4981835;28;20442;-69
2022/06/10 00:26:04;;;;;;;8.13;3.07;;;16.40;99.90;;;;;;5000089;28;20444;-69
2022/06/10 00:28:30;;;;;;;4.27;2.87;;;16.40;99.90;;;;;;4982099;28;20838;-69
2022/06/10 00:30:56;;;;;;;5.50;2.70;;;16.40;99.90;;;;;;4998695;28;20590;-69
2022/06/10 00:33:22;;;;;;;13.20;2.80;;;16.30;99.90;;;;;;4999676;28;20607;-67
2022/06/10 00:35:48;;;;;;;7.47;3.10;;;16.30;99.90;;;;;;5001609;28;21158;-68
2022/06/10 00:38:14;;;;;;;5.73;2.77;;;16.30;99.90;;;;;;5002338;28;20440;-68
2022/06/10 00:40:43;;;;;;;3.50;2.80;;;16.30;99.90;;;;;;4998968;28;20436;-68
2022/06/10 00:43:22;;;;;;;5.23;3.30;;;16.30;99.90;;;;;;4998956;28;20215;-67
2022/06/10 00:46:05;;;;;;;4.50;3.10;;;16.20;99.90;;;;;;5002878;28;20808;-69
2022/06/10 00:48:55;;;;;;;5.47;3.00;;;16.10;99.90;;;;;;5000668;28;20829;-67
2022/06/10 00:51:26;;;;;;;4.80;2.97;;;16.10;99.90;;;;;;4998033;28;20441;-67
2022/06/10 00:53:59;;;;;;;7.90;3.23;;;16.20;99.90;;;;;;5000207;28;20459;-67
2022/06/10 00:56:27;;;;;;;4.80;2.70;;;16.20;99.90;;;;;;4983077;28;20470;-67
2022/06/10 00:58:59;;;;;;;10.50;3.70;;;16.20;99.90;;;;;;5001141;28;20447;-67
2022/06/10 01:01:26;;;;;;;4.73;2.87;;;16.30;99.90;;;;;;4998120;28;20882;-67
2022/06/10 01:03:53;;;;;;;7.33;3.20;;;16.20;99.90;;;;;;4997952;28;20436;-67
2022/06/10 01:06:19;;;;;;;6.07;3.10;;;16.30;99.90;;;;;;4999541;28;20440;-67
2022/06/10 01:08:46;;;;;;;6.77;3.30;;;16.20;99.90;;;;;;4983638;28;20587;-67
2022/06/10 01:11:14;;;;;;;5.13;2.90;;;16.10;99.90;;;;;;5003757;28;20189;-66
2022/06/10 01:14:15;;;;;;;4.97;3.50;;;16.00;99.90;;;;;;5006606;28;20909;-67
2022/06/10 01:16:56;;;;;;;9.17;2.80;;;16.10;99.90;;;;;;5003932;28;20468;-69
2022/06/10 01:19:36;;;;;;;5.50;3.10;;;16.10;99.90;;;;;;5003440;28;20547;-69
2022/06/10 01:22:51;;;;;;;7.90;2.87;;;16.00;99.90;;;;;;5002302;28;20491;-69
2022/06/10 01:25:30;;;;;;;4.93;3.27;;;16.10;99.90;;;;;;5004607;28;20847;-67
2022/06/10 01:28:37;;;;;;;9.37;3.60;;;16.20;99.90;;;;;;5000914;28;20995;-68
2022/06/10 01:31:09;;;;;;;5.40;2.97;;;16.20;99.90;;;;;;5000563;28;20439;-68
2022/06/10 01:33:52;;;;;;;5.70;3.00;;;16.10;99.90;;;;;;5005735;28;20463;-68
2022/06/10 01:36:28;;;;;;;4.50;2.33;;;16.10;99.90;;;;;;5003769;28;20463;-68
2022/06/10 01:39:02;;;;;;;7.70;3.57;;;16.10;99.90;;;;;;5001470;28;20539;-68
2022/06/10 01:41:31;;;;;;;7.33;3.00;;;16.10;99.90;;;;;;5001128;28;20479;-68
2022/06/10 01:44:17;;;;;;;9.70;3.07;;;16.10;99.90;;;;;;5005417;28;21104;-68
2022/06/10 01:46:57;;;;;;;3.87;3.20;;;16.00;99.90;;;;;;5005427;28;20446;-68
2022/06/10 01:49:28;;;;;;;7.57;3.80;;;16.00;99.90;;;;;;5004013;28;20439;-68
2022/06/10 01:52:11;;;;;;;5.03;3.40;;;15.90;99.90;;;;;;4971447;28;20556;-69
2022/06/10 01:54:42;;;;;;;7.63;3.00;;;15.90;99.90;;;;;;5005215;28;20447;-69
2022/06/10 01:57:20;;;;;;;7.93;3.63;;;15.90;99.90;;;;;;5005747;28;20470;-69
2022/06/10 01:59:52;;;;;;;8.30;3.00;;;15.90;99.90;;;;;;4999231;28;20502;-68
2022/06/10 02:02:25;;;;;;;6.93;3.50;;;15.90;99.90;;;;;;5002872;28;20469;-69
2022/06/10 02:04:58;;;;;;;3.90;3.20;;;16.00;99.90;;;;;;5002671;28;20444;-68
2022/06/10 02:07:33;;;;;;;6.40;3.70;;;15.90;99.90;;;;;;5004099;28;20440;-69
2022/06/10 02:10:13;;;;;;;4.37;3.77;;;15.90;99.90;;;;;;5004451;28;21067;-67
2022/06/10 02:12:46;;;;;;;4.67;3.10;;;15.80;99.90;;;;;;5000562;28;20637;-68
2022/06/10 02:15:20;;;;;;;9.83;3.50;;;15.90;99.90;;;;;;5004445;28;20451;-69
2022/06/10 02:17:53;;;;;;;6.60;3.60;;;15.90;99.90;;;;;;5002865;28;20427;-68
2022/06/10 02:20:24;;;;;;;4.33;2.97;;;15.90;99.90;;;;;;5001132;28;20474;-68
2022/06/10 02:22:53;;;;;;;8.00;3.40;;;15.80;99.90;;;;;;5002153;28;20452;-69
2022/06/10 02:25:24;;;;;;;5.47;3.30;;;15.80;99.90;;;;;;5004483;28;20963;-68
2022/06/10 02:27:57;;;;;;;4.30;3.00;;;15.90;99.90;;;;;;5003782;28;20463;-68
2022/06/10 02:30:29;;;;;;;4.60;3.00;;;15.90;99.90;;;;;;5001962;28;20436;-68
2022/06/10 02:32:57;;;;;;;10.23;3.50;;;15.80;99.90;;;;;;5005427;28;20467;-68
2022/06/10 02:35:28;;;;;;;6.47;3.00;;;15.80;99.90;;;;;;4984008;28;20494;-68
2022/06/10 02:38:14;;;;;;;3.70;2.70;;;15.90;99.90;;;;;;5005411;28;20945;-69
2022/06/10 02:40:50;;;;;;;9.00;2.97;;;15.90;99.90;;;;;;5001603;28;20447;-69
2022/06/10 02:43:51;;;;;;;5.40;3.10;;;15.80;99.90;;;;;;5000370;28;20459;-68
2022/06/10 02:46:24;;;;;;;4.67;2.77;;;15.80;99.90;;;;;;4994202;28;20458;-67
2022/06/10 02:48:57;;;;;;;4.93;2.93;;;15.70;99.90;;;;;;5003650;28;20443;-68
2022/06/10 02:51:23;;;;;;;5.60;3.03;;;15.60;99.90;;;;;;4984028;28;21010;-68
2022/06/10 02:53:49;;;;;;;6.33;2.90;;;15.60;99.90;;;;;;5006964;28;20424;-68
2022/06/10 02:56:24;;;;;;;6.60;3.20;;;15.60;99.90;;;;;;4997511;28;20506;-68
2022/06/10 03:02:04;;;;;;;7.83;2.60;;;15.50;99.90;;;;;;5000968;28;20495;-68
2022/06/10 03:04:48;;;;;;;6.30;3.00;;;15.60;99.90;;;;;;5003190;28;20502;-69
2022/06/10 03:07:51;;;;;;;4.50;3.00;;;15.60;99.90;;;;;;5005395;28;20444;-68
2022/06/10 03:10:30;;;;;;;3.70;3.30;;;15.60;99.90;;;;;;4911169;28;20980;-68
2022/06/10 03:13:19;;;;;;;7.90;3.10;;;15.60;99.90;;;;;;5004529;28;20509;-68
2022/06/10 03:16:00;;;;;;;7.97;3.30;;;15.50;99.90;;;;;;5005603;28;20476;-68
2022/06/10 03:18:41;;;;;;;4.60;2.87;;;15.50;99.90;;;;;;5002059;28;20474;-68
2022/06/10 03:21:37;;;;;;;6.90;3.20;;;15.60;99.90;;;;;;5002628;28;20450;-68
2022/06/10 03:24:20;;;;;;;8.53;3.07;;;15.50;99.90;;;;;;5002343;28;20465;-68
2022/06/10 03:26:53;;;;;;;12.70;3.27;;;15.40;99.90;;;;;;5000160;28;20436;-68
2022/06/10 03:29:38;;;;;;;4.37;2.93;;;15.40;99.90;;;;;;5003249;28;20493;-69
2022/06/10 03:32:12;;;;;;;5.87;3.83;;;15.60;99.90;;;;;;5004184;28;20853;-69
2022/06/10 03:34:44;;;;;;;5.13;3.33;;;15.50;99.90;;;;;;5003087;28;20527;-69
2022/06/10 03:37:11;;;;;;;4.90;3.10;;;15.50;99.90;;;;;;5001080;28;20479;-68
2022/06/10 03:39:39;;;;;;;5.20;3.03;;;15.50;99.90;;;;;;4997850;28;20766;-68
2022/06/10 03:42:16;;;;;;;8.13;3.20;;;15.40;99.90;;;;;;4982951;28;20562;-68
2022/06/10 03:44:44;;;;;;;5.20;3.37;;;15.40;99.90;;;;;;4998543;28;20432;-69
2022/06/10 03:47:21;;;;;;;6.10;5.40;;;15.40;99.90;;;;;;5004824;28;20471;-68
2022/06/10 03:49:57;;;;;;;6.43;3.60;;;15.20;99.90;;;;;;4999573;28;20440;-68
2022/06/10 03:52:29;;;;;;;5.73;3.60;;;15.30;99.90;;;;;;4999224;28;20473;-68
2022/06/10 03:54:55;;;;;;;6.10;4.53;;;15.20;99.90;;;;;;4999385;28;20444;-68
2022/06/10 03:57:20;;;;;;;4.37;3.10;;;15.10;99.90;;;;;;5003653;28;20791;-68
2022/06/10 03:59:46;;;;;;;7.33;4.00;;;15.00;99.90;;;;;;5006522;28;20193;-69
2022/06/10 04:02:12;;;;;;;9.00;3.57;;;15.00;99.90;;;;;;5004225;28;20728;-68
2022/06/10 04:04:42;;;;;;;7.33;3.57;;;15.00;99.90;;;;;;5006119;28;20458;-68
2022/06/10 04:07:13;;;;;;;4.43;3.70;;;15.00;99.90;;;;;;5002008;28;20193;-68
2022/06/10 04:09:39;;;;;;;3.03;2.80;;;14.90;99.90;;;;;;4987874;28;20442;-68
2022/06/10 04:12:08;;;;;;;9.30;3.40;;;14.80;99.90;;;;;;5003882;28;21052;-69
2022/06/10 04:14:34;;;;;;;8.03;3.70;;;14.80;99.90;;;;;;5002551;28;20197;-68
2022/06/10 04:17:10;;;;;;;9.40;3.43;;;14.90;99.90;;;;;;4987924;28;20470;-69
2022/06/10 04:19:35;;;;;;;9.03;3.73;;;14.90;99.90;;;;;;5004692;28;20185;-68
2022/06/10 04:22:03;;;;;;;4.87;3.00;;;14.90;99.90;;;;;;5003168;28;20509;-68
2022/06/10 04:24:28;;;;;;;5.90;3.57;;;15.00;99.90;;;;;;5004409;28;20782;-67
2022/06/10 04:26:54;;;;;;;5.77;3.77;;;15.00;99.90;;;;;;5005583;28;20432;-68
2022/06/10 04:29:20;;;;;;;4.03;3.50;;;15.10;99.90;;;;;;5005062;28;20744;-68
2022/06/10 04:31:45;;;;;;;5.73;3.77;;;15.30;99.90;;;;;;5003546;28;20597;-67
2022/06/10 04:34:11;;;;;;;6.20;3.73;;;15.30;99.90;;;;;;4982414;28;20185;-68
2022/06/10 04:36:37;;;;;;;8.70;3.70;;;15.30;99.90;;;;;;5002782;28;20862;-67
2022/06/10 04:39:03;;;;;;;5.70;3.27;;;15.20;99.90;;;;;;5005121;28;20444;-68
2022/06/10 04:41:29;;;;;;;3.47;3.10;;;15.20;99.90;;;;;;5003751;28;20451;-70
2022/06/10 04:43:55;;;;;;;7.97;4.13;;;15.40;99.90;;;;;;5004909;28;20629;-69
2022/06/10 04:46:27;;;;;;;12.03;3.70;;;15.40;99.90;;;;;;5004366;28;20193;-69
2022/06/10 04:48:53;;;;;;;9.87;3.90;;;15.40;99.90;;;;;;5004310;28;20193;-70
2022/06/10 04:51:19;;;;;;;10.47;4.80;;;15.40;99.90;;;;;;5001266;28;22081;-69
2022/06/10 04:53:45;;;;;;;4.90;3.63;;;15.50;99.90;;;;;;5005266;28;20480;-69
2022/06/10 04:56:10;;;;;;;6.33;3.40;;;15.50;99.90;;;;;;5005174;28;20508;-69
2022/06/10 04:58:36;;;;;;;8.60;4.53;;;15.40;99.90;;;;;;5004272;28;20602;-69
2022/06/10 05:01:01;;;;;;;9.13;3.93;;;15.50;99.90;;;;;;5005352;28;20621;-68
2022/06/10 05:03:27;;;;;;;10.53;4.30;;;15.50;99.90;;;;;;5003337;28;20304;-69
2022/06/10 05:05:53;;;;;;;5.50;3.40;;;15.60;99.90;;;;;;5006032;28;20213;-69
2022/06/10 05:08:19;;;;;;;4.70;3.23;;;15.60;99.90;;;;;;5004358;28;20432;-69
2022/06/10 05:10:47;;;;;;;3.90;3.40;;;15.60;99.90;;;;;;5000179;28;20185;-68
2022/06/10 05:13:16;;;;;;;6.23;3.33;;;15.80;99.90;;;;;;5003374;28;20209;-68
2022/06/10 05:15:42;;;;;;;7.77;3.50;;;15.80;99.90;;;;;;5002587;28;20468;-68
2022/06/10 05:18:08;;;;;;;6.23;2.87;;;15.70;99.90;;;;;;5004865;28;21533;-69
2022/06/10 05:20:40;;;;;;;4.80;3.43;;;15.80;99.90;;;;;;5004164;28;20498;-68
2022/06/10 05:23:08;;;;;;;6.47;3.60;;;15.80;99.90;;;;;;5002401;28;20459;-68
2022/06/10 05:25:34;;;;;;;9.37;4.00;;;15.80;99.90;;;;;;5003739;28;20428;-68
2022/06/10 05:28:00;;;;;;;4.70;3.30;;;15.80;99.90;;;;;;5004214;28;20441;-67
2022/06/10 05:30:30;;;;;;;5.10;3.10;;;15.80;99.90;;;;;;5003459;28;20808;-68
2022/06/10 05:32:56;;;;;;;7.10;3.70;;;15.90;99.90;;;;;;5001567;28;21569;-68
2022/06/10 05:35:22;;;;;;;5.10;3.50;;;16.00;99.90;;;;;;5000611;28;20460;-67
2022/06/10 05:37:48;;;;;;;6.40;3.33;;;15.80;99.90;;;;;;5003295;28;20436;-66
2022/06/10 05:40:15;;;;;;;9.53;4.10;;;15.90;99.90;;;;;;5002432;28;20403;-67
2022/06/10 05:42:41;;;;;;;5.50;3.70;;;16.00;99.90;;;;;;5002792;28;20452;-67
2022/06/10 05:45:07;;;;;;;7.00;3.67;;;16.00;99.90;;;;;;5005438;28;20486;-67
2022/06/10 05:47:35;;;;;;;6.53;3.40;;;16.10;99.90;;;;;;5004833;28;20665;-66
2022/06/10 05:50:07;;;;;;;6.47;3.70;;;16.20;99.90;;;;;;4983222;28;20433;-66
2022/06/10 05:52:33;;;;;;;4.23;3.00;;;16.20;99.90;;;;;;4985934;28;21075;-67
2022/06/10 05:55:02;;;;;;;4.63;3.17;;;16.20;99.90;;;;;;5005084;28;20552;-67
2022/06/10 05:57:30;;;;;;;10.30;3.80;;;16.30;99.90;;;;;;5006886;28;20522;-67
2022/06/10 05:59:57;;;;;;;7.97;3.07;;;16.30;99.90;;;;;;5008424;28;20458;-67
2022/06/10 06:02:23;;;;;;;7.13;3.50;;;16.30;99.90;;;;;;5007432;28;20456;-67
2022/06/10 06:04:50;;;;;;;11.17;4.03;;;16.30;99.90;;;;;;5007925;28;20444;-67
2022/06/10 06:07:24;;;;;;;6.47;3.93;;;16.30;99.90;;;;;;5006207;28;20531;-67
2022/06/10 06:09:50;;;;;;;6.13;3.90;;;16.40;99.90;;;;;;5007799;28;20428;-67
2022/06/10 06:12:16;;;;;;;11.33;4.90;;;16.40;99.90;;;;;;5007257;28;20482;-67
2022/06/10 06:14:42;;;;;;;6.33;3.60;;;16.30;99.90;;;;;;5007010;28;20436;-67
2022/06/10 06:17:11;;;;;;;5.70;3.67;;;16.40;99.90;;;;;;5005994;28;20545;-67
2022/06/10 06:19:37;;;;;;;8.00;3.20;;;16.40;99.90;;;;;;5004311;28;20208;-67
2022/06/10 06:22:03;;;;;;;4.93;3.77;;;16.40;99.90;;;;;;4994060;28;20454;-67
2022/06/10 06:24:28;;;;;;;8.70;4.93;;;16.50;99.90;;;;;;4996760;28;20194;-67
2022/06/10 06:26:54;;;;;;;9.03;3.77;;;16.60;99.90;;;;;;5007316;28;20432;-66
2022/06/10 06:29:23;;;;;;;5.27;3.40;;;16.60;99.90;;;;;;5006181;28;20185;-66
2022/06/10 06:31:50;;;;;;;7.47;3.50;;;16.60;99.90;;;;;;5003756;28;20566;-66
2022/06/10 06:34:16;;;;;;;5.27;3.60;;;16.60;99.90;;;;;;5007854;28;20457;-67
2022/06/10 06:36:45;;;;;;;8.03;3.87;;;16.70;99.90;;;;;;5005650;28;20554;-67
2022/06/10 06:39:16;;;;;;;5.50;3.60;;;16.80;99.90;;;;;;4988981;28;20996;-67
2022/06/10 06:41:42;;;;;;;4.60;3.43;;;16.80;99.90;;;;;;5006530;28;20444;-65
2022/06/10 06:44:08;;;;;;;7.93;3.70;;;16.80;99.90;;;;;;5005978;28;20522;-66
2022/06/10 06:46:35;;;;;;;6.27;3.60;;;16.90;99.90;;;;;;5004739;28;20567;-65
2022/06/10 06:49:03;;;;;;;8.30;4.10;;;17.00;99.90;;;;;;5004853;28;20209;-66
2022/06/10 06:51:29;;;;;;;7.07;3.60;;;17.10;99.90;;;;;;5007337;28;20428;-66
2022/06/10 06:53:54;;;;;;;11.33;7.33;;;17.20;99.90;;;;;;5006403;28;20436;-66
2022/06/10 06:56:20;;;;;;;5.90;3.57;;;17.20;99.90;;;;;;5009045;28;20463;-66
2022/06/10 06:58:45;;;;;;;3.60;3.20;;;17.20;99.90;;;;;;5003787;28;20656;-66
2022/06/10 07:01:11;;;;;;;5.53;3.60;;;17.30;99.90;;;;;;5006411;28;20189;-66
2022/06/10 07:03:37;;;;;;;7.07;3.70;;;17.30;99.90;;;;;;5005662;28;20182;-66
2022/06/10 07:06:03;;;;;;;8.20;4.40;;;17.30;99.90;;;;;;5005531;28;20193;-68
2022/06/10 07:08:31;;;;;;;7.80;3.13;;;17.40;99.90;;;;;;5004144;28;20193;-67
2022/06/10 07:10:59;;;;;;;5.47;3.63;;;17.50;99.90;;;;;;5005093;28;20181;-67
2022/06/10 07:13:25;;;;;;;6.47;3.90;;;17.50;99.90;;;;;;5005392;28;20470;-67
2022/06/10 07:15:50;;;;;;;9.00;3.93;;;17.60;99.90;;;;;;5004050;28;20474;-66
2022/06/10 07:18:17;;;;;;;6.80;2.97;;;17.70;99.90;;;;;;5004467;28;20892;-67
2022/06/10 07:20:44;;;;;;;4.37;3.00;;;17.70;99.90;;;;;;5004676;28;20193;-66
2022/06/10 07:23:09;;;;;;;12.27;3.77;;;17.70;99.90;;;;;;5003889;28;20496;-66
2022/06/10 07:25:35;;;;;;;7.00;3.77;;;17.80;99.90;;;;;;5004709;28;20440;-67
2022/06/10 07:28:01;;;;;;;12.37;3.90;;;17.80;99.90;;;;;;5004775;28;20193;-67
2022/06/10 07:30:32;;;;;;;10.20;3.70;;;17.80;99.90;;;;;;5005089;28;20471;-68
2022/06/10 07:32:58;;;;;;;10.97;3.60;;;18.00;99.90;;;;;;5006985;28;20288;-67
2022/06/10 07:35:25;;;;;;;7.37;3.03;;;18.10;99.90;;;;;;5006332;28;20442;-67
2022/06/10 07:37:51;;;;;;;6.27;3.30;;;18.00;99.90;;;;;;5006544;28;20463;-68
2022/06/10 07:43:05;;;;;;;8.73;4.30;;;18.30;99.90;;;;;;5004664;28;20470;-68
2022/06/10 07:45:31;;;;;;;7.93;3.63;;;18.30;99.90;;;;;;5002733;28;20441;-68
2022/06/10 07:47:57;;;;;;;3.20;2.80;;;18.30;99.90;;;;;;4987870;28;20193;-67
2022/06/10 07:50:23;;;;;;;7.10;3.33;;;18.40;99.90;;;;;;5001886;28;21157;-66
2022/06/10 07:52:50;;;;;;;8.17;3.63;;;18.50;99.90;;;;;;5003889;28;20228;-68
2022/06/10 07:55:18;;;;;;;6.83;3.43;;;18.50;99.90;;;;;;5003711;28;20535;-67
2022/06/10 07:57:44;;;;;;;5.10;3.07;;;18.50;99.90;;;;;;5005450;28;20874;-68
2022/06/10 08:00:11;;;;;;;5.60;4.83;;;18.60;99.90;;;;;;5005539;28;20436;-67
2022/06/10 08:02:38;;;;;;;8.30;3.23;;;18.60;99.90;;;;;;5004793;28;20209;-65
2022/06/10 08:05:05;;;;;;;9.10;5.90;;;18.70;99.90;;;;;;5006696;28;20428;-65
2022/06/10 08:07:31;;;;;;;6.47;4.20;;;18.80;99.90;;;;;;5003852;28;20996;-64
2022/06/10 08:09:57;;;;;;;5.43;3.40;;;18.90;99.90;;;;;;5000924;28;20447;-68
2022/06/10 08:12:23;;;;;;;6.13;3.70;;;19.00;99.90;;;;;;5000381;28;20213;-67
2022/06/10 08:14:49;;;;;;;5.80;3.27;;;19.00;99.90;;;;;;5006139;28;20563;-67
2022/06/10 08:17:15;;;;;;;6.17;3.33;;;19.20;99.90;;;;;;5002936;28;20463;-67
2022/06/10 08:19:40;;;;;;;5.97;3.33;;;19.20;99.90;;;;;;5004454;28;20669;-67
2022/06/10 08:24:51;;;;;;;5.07;3.70;;;19.30;99.90;;;;;;5001730;28;20657;-63
2022/06/10 08:27:17;;;;;;;4.43;3.90;;;19.20;99.90;;;;;;4985836;28;20452;-64
2022/06/10 08:29:44;;;;;;;5.30;3.60;;;19.20;99.90;;;;;;5002084;28;20185;-64
2022/06/10 08:32:09;;;;;;;6.00;3.03;;;19.20;99.90;;;;;;5002010;28;20303;-65
2022/06/10 08:34:36;;;;;;;8.00;3.77;;;19.30;99.90;;;;;;5003136;28;20531;-64
2022/06/10 08:37:02;;;;;;;6.00;3.57;;;19.40;99.90;;;;;;5001590;28;20274;-64
2022/06/10 08:39:28;;;;;;;10.83;5.10;;;19.40;99.90;;;;;;5001993;28;21276;-63
2022/06/10 08:42:26;;;;;;;6.63;3.67;;;19.50;99.90;;;;;;5001796;28;20205;-64
2022/06/10 08:44:57;;;;;;;4.03;2.90;;;19.50;99.90;;;;;;4939306;28;20967;-64
2022/06/10 08:47:34;;;;;;;8.50;3.43;;;19.60;99.90;;;;;;5004648;28;20432;-64
2022/06/10 08:50:23;;;;;;;4.03;3.23;;;19.70;99.90;;;;;;5003903;28;20442;-69
2022/06/10 08:53:16;;;;;;;7.30;3.00;;;19.70;99.90;;;;;;5004113;28;20460;-68
2022/06/10 08:56:05;;;;;;;6.10;3.40;;;19.90;99.90;;;;;;5005548;28;20440;-68
2022/06/10 08:58:45;;;;;;;3.83;2.73;;;19.90;99.90;;;;;;5001877;28;20532;-69
2022/06/10 09:01:19;;;;;;;4.33;3.10;;;20.00;99.90;;;;;;5003890;28;20434;-67
2022/06/10 09:03:50;;;;;;;6.33;3.80;;;20.10;99.90;;;;;;4985527;28;20436;-67
2022/06/10 09:06:31;;;;;;;4.80;3.03;;;20.00;99.90;;;;;;5002827;28;20870;-67
2022/06/10 09:09:03;;;;;;;3.73;2.70;;;20.10;99.90;;;;;;5003812;28;20457;-67
2022/06/10 09:11:37;;;;;;;3.77;2.70;;;20.20;99.90;;;;;;5003409;28;20440;-65
2022/06/10 09:14:22;;;;;;;4.40;2.90;;;20.20;99.90;;;;;;5005302;28;20443;-67
2022/06/10 09:17:09;;;;;;;5.03;2.90;;;20.30;99.90;;;;;;5001361;28;20842;-65
2022/06/10 09:19:58;;;;;;;4.73;2.83;;;20.40;99.90;;;;;;5002209;28;20548;-66
2022/06/10 09:22:41;;;;;;;6.73;2.80;;;20.40;99.90;;;;;;5003434;28;20451;-66
2022/06/10 09:25:14;;;;;;;5.63;2.70;;;20.60;99.90;;;;;;5000798;28;20499;-66
2022/06/10 09:27:44;;;;;;;4.40;2.97;;;20.60;99.90;;;;;;5005189;28;20444;-66
2022/06/10 09:30:15;;;;;;;4.60;3.70;;;20.60;99.90;;;;;;5005918;28;20434;-66
2022/06/10 09:32:52;;;;;;;3.83;2.40;;;20.50;99.90;;;;;;5008395;28;20522;-66
2022/06/10 09:35:22;;;;;;;5.50;3.50;;;20.50;99.90;;;;;;5006517;28;21217;-66
2022/06/10 09:38:11;;;;;;;8.30;2.90;;;20.60;99.90;;;;;;5008461;28;20541;-66
2022/06/10 09:40:50;;;;;;;4.20;2.60;;;20.60;99.90;;;;;;5007488;28;20466;-66
2022/06/10 09:43:43;;;;;;;7.17;2.90;;;20.70;99.90;;;;;;5010821;28;20457;-66
2022/06/10 09:46:24;;;;;;;3.60;2.23;;;20.80;99.90;;;;;;5008463;28;20974;-66
2022/06/10 09:49:22;;;;;;;4.07;2.90;;;20.90;99.90;;;;;;5005782;28;20459;-66
2022/06/10 09:52:02;;;;;;;4.63;2.60;;;21.00;99.90;;;;;;5008480;28;20444;-66
2022/06/10 09:54:59;;;;;;;3.80;2.77;;;21.10;99.90;;;;;;5007580;28;20459;-66
2022/06/10 09:57:44;;;;;;;5.80;2.67;;;21.10;99.90;;;;;;5004558;28;20494;-66
2022/06/10 10:00:26;;;;;;;3.40;2.40;;;21.20;99.90;;;;;;5004988;28;20449;-66
2022/06/10 10:03:19;;;;;;;6.87;2.57;;;21.20;99.90;;;;;;5006816;28;20473;-66
2022/06/10 10:06:10;;;;;;;4.50;3.10;;;21.20;99.90;;;;;;4989087;28;20676;-65
2022/06/10 10:08:57;;;;;;;4.37;2.67;;;21.30;99.90;;;;;;5007795;28;20439;-67
2022/06/10 10:11:45;;;;;;;7.00;3.00;;;21.30;99.90;;;;;;4996402;28;21118;-66
2022/06/10 10:14:29;;;;;;;4.33;2.90;;;21.30;99.90;;;;;;5006364;28;20436;-66
2022/06/10 10:17:13;;;;;;;3.77;2.70;;;21.30;99.90;;;;;;4989359;28;21042;-68
2022/06/10 10:19:51;;;;;;;6.70;2.50;;;21.50;99.90;;;;;;5008428;28;20451;-69
2022/06/10 10:22:37;;;;;;;3.33;2.70;;;21.50;99.90;;;;;;5005233;28;20486;-68
2022/06/10 10:25:11;;;;;;;4.67;2.50;;;21.70;99.90;;;;;;5004738;28;20440;-69
2022/06/10 10:27:37;;;;;;;4.20;3.07;;;21.70;99.90;;;;;;5003842;28;20432;-69
2022/06/10 10:30:32;;;;;;;7.40;2.47;;;21.70;99.90;;;;;;5006837;28;20542;-69
2022/06/10 10:33:02;;;;;;;4.03;3.07;;;21.70;99.90;;;;;;5008028;28;20615;-69
2022/06/10 10:35:36;;;;;;;6.70;3.37;;;21.80;99.90;;;;;;5005281;28;20518;-67
2022/06/10 10:38:06;;;;;;;5.90;2.70;;;21.90;99.90;;;;;;5007031;28;20447;-66
2022/06/10 10:40:37;;;;;;;7.03;2.93;;;22.00;99.90;;;;;;5004218;28;20459;-67
2022/06/10 10:43:09;;;;;;;5.83;3.30;;;22.00;99.90;;;;;;5007591;28;20534;-67
2022/06/10 10:45:38;;;;;;;4.80;3.00;;;22.10;99.90;;;;;;5006115;28;20439;-68
2022/06/10 10:48:19;;;;;;;9.20;4.20;;;22.10;99.90;;;;;;5006377;28;20932;-68
2022/06/10 10:50:55;;;;;;;4.83;2.80;;;22.30;99.90;;;;;;4988184;28;21025;-66
2022/06/10 10:53:38;;;;;;;3.57;2.80;;;22.40;99.90;;;;;;4988881;28;20578;-67
2022/06/10 10:56:06;;;;;;;8.00;2.93;;;22.50;99.90;;;;;;5005320;28;20487;-66
2022/06/10 10:58:48;;;;;;;5.97;3.50;;;22.50;99.90;;;;;;5004402;28;20547;-66
2022/06/10 11:03:59;;;;;;;4.90;2.73;;;22.50;99.90;;;;;;5005544;28;20431;-66
2022/06/10 11:06:28;;;;;;;5.17;2.60;;;22.60;99.90;;;;;;5006072;28;20440;-68
2022/06/10 11:08:58;;;;;;;4.40;2.90;;;22.70;99.90;;;;;;5004878;28;20506;-68
2022/06/10 11:11:36;;;;;;;6.70;2.63;;;22.80;99.90;;;;;;4984530;28;20464;-67
2022/06/10 11:14:16;;;;;;;4.80;2.70;;;22.90;99.90;;;;;;5005397;28;20432;-67
2022/06/10 11:16:56;;;;;;;5.03;2.63;;;22.90;99.90;;;;;;5005647;28;20554;-66
2022/06/10 11:19:34;;;;;;;7.30;2.93;;;23.10;99.90;;;;;;5003117;28;20568;-67
2022/06/10 11:22:02;;;;;;;4.57;2.63;;;23.30;99.90;;;;;;5006078;28;20527;-67
2022/06/10 11:24:45;;;;;;;6.27;3.03;;;23.40;99.90;;;;;;5005899;28;20430;-65
2022/06/10 11:27:38;;;;;;;4.57;2.87;;;23.60;99.90;;;;;;5003369;28;20444;-67
2022/06/10 11:30:10;;;;;;;4.70;2.70;;;23.70;99.80;;;;;;5006026;28;20432;-67
2022/06/10 11:32:47;;;;;;;4.53;2.40;;;23.80;99.90;;;;;;5003747;28;20459;-66
2022/06/10 11:35:27;;;;;;;5.20;2.73;;;23.80;98.70;;;;;;5003294;28;20558;-67
2022/06/10 11:38:06;;;;;;;7.87;3.30;;;24.00;97.10;;;;;;5005703;28;20554;-67
2022/06/10 11:40:54;;;;;;;4.37;2.87;;;24.00;97.50;;;;;;5004123;28;20440;-68
2022/06/10 11:43:22;;;;;;;3.70;2.60;;;24.20;96.90;;;;;;5003765;28;20490;-67
2022/06/10 11:45:54;;;;;;;4.03;2.83;;;24.40;97.50;;;;;;5006552;28;20523;-67
2022/06/10 11:48:46;;;;;;;6.83;2.90;;;24.70;97.10;;;;;;5004105;28;20440;-67
2022/06/10 11:51:31;;;;;;;3.90;2.90;;;25.10;95.10;;;;;;5006387;28;20922;-66
2022/06/10 11:54:29;;;;;;;6.90;3.10;;;25.40;95.60;;;;;;5005133;28;20432;-66
2022/06/10 12:00:03;;;;;;;4.60;3.03;;;26.20;92.60;;;;;;5002429;28;20442;-67
2022/06/10 12:02:38;;;;;;;5.37;2.80;;;26.70;92.10;;;;;;5005001;28;20468;-66
2022/06/10 12:05:20;;;;;;;4.30;2.83;;;27.70;90.40;;;;;;5003749;28;21071;-67
2022/06/10 12:08:02;;;;;;;7.63;3.80;;;29.60;83.60;;;;;;5003145;28;20459;-67
2022/06/10 12:10:35;;;;;;;6.00;2.87;;;30.90;78.80;;;;;;5001779;28;20439;-66
2022/06/10 12:13:00;;;;;;;4.43;3.37;;;33.90;74.00;;;;;;5003917;28;20444;-66
2022/06/10 12:15:34;;;;;;;5.47;4.30;;;35.00;64.10;;;;;;5003863;28;20463;-67
2022/06/10 12:18:04;;;;;;;6.57;3.27;;;35.20;58.30;;;;;;5006977;28;20232;-67
2022/06/10 12:20:48;;;;;;;5.07;2.80;;;36.60;54.20;;;;;;5002273;28;20444;-68
2022/06/10 12:23:23;;;;;;;4.53;2.80;;;37.90;51.90;;;;;;5004644;28;20885;-67
2022/06/10 12:25:57;;;;;;;11.50;3.60;;;39.00;46.90;;;;;;4997017;28;20518;-68
2022/06/10 12:28:31;;;;;;;4.73;2.77;;;38.40;44.70;;;;;;5002370;28;20485;-67
2022/06/10 12:31:31;;;;;;;4.63;2.70;;;38.40;43.80;;;;;;4984731;28;20438;-67
2022/06/10 12:34:14;;;;;;;4.23;2.53;;;38.30;42.30;;;;;;5002439;28;20534;-67
2022/06/10 12:36:45;;;;;;;4.50;2.70;;;37.70;41.70;;;;;;5004617;28;20471;-68
2022/06/10 12:39:30;;;;;;;3.00;2.70;;;36.30;42.40;;;;;;5003063;28;20905;-68
2022/06/10 12:42:21;;;;;;;4.20;2.90;;;35.30;43.30;;;;;;5003260;28;20496;-68
2022/06/10 12:44:53;;;;;;;3.70;2.70;;;36.10;44.40;;;;;;5003418;28;20476;-68
2022/06/10 12:47:27;;;;;;;5.23;2.70;;;37.50;43.30;;;;;;5004720;28;20440;-68
2022/06/10 12:49:59;;;;;;;4.43;3.20;;;38.60;41.30;;;;;;5002489;28;20494;-68
2022/06/10 12:52:53;;;;;;;4.03;2.37;;;39.50;40.90;;;;;;5000282;28;20441;-67
2022/06/10 12:55:47;;;;;;;4.00;2.67;;;40.10;40.30;;;;;;4999915;28;20915;-67
2022/06/10 12:58:37;;;;;;;3.70;2.70;;;40.70;39.70;;;;;;5003069;28;21098;-66
2022/06/10 13:01:16;;;;;;;3.80;3.10;;;41.60;38.90;;;;;;4997088;28;20447;-67
2022/06/10 13:03:42;;;;;;;3.67;2.43;;;42.00;38.40;;;;;;4997843;28;21027;-68
2022/06/10 13:06:29;;;;;;;3.13;2.67;;;41.80;37.20;;;;;;4997225;28;20752;-68
2022/06/10 13:09:11;;;;;;;4.80;2.50;;;40.20;36.00;;;;;;4999108;28;20434;-68
2022/06/10 13:11:41;;;;;;;3.77;2.87;;;39.90;35.80;;;;;;4994362;28;20542;-69
2022/06/10 13:14:22;;;;;;;4.20;3.00;;;39.10;35.90;;;;;;4998394;28;20443;-67
2022/06/10 13:17:09;;;;;;;5.07;3.07;;;37.10;37.10;;;;;;4997857;28;20533;-68
2022/06/10 13:19:41;;;;;;;4.87;2.77;;;37.20;39.40;;;;;;4978805;28;20697;-66
2022/06/10 13:22:24;;;;;;;5.00;3.10;;;36.40;39.20;;;;;;5000722;28;20929;-66
2022/06/10 13:24:52;;;;;;;3.30;2.67;;;37.00;39.40;;;;;;4998202;28;21223;-66
2022/06/10 13:27:24;;;;;;;4.03;2.47;;;37.90;38.70;;;;;;5000290;28;20585;-65
2022/06/10 13:29:54;;;;;;;5.60;2.60;;;38.20;39.90;;;;;;5000424;28;20436;-66
2022/06/10 13:32:20;;;;;;;4.70;2.90;;;38.50;38.70;;;;;;4997119;28;20461;-66